createdAt,value
2022-09-20T00:01:12.945Z,97897.03
2022-09-20T00:03:44.713Z,97894.28
2022-09-20T00:06:19.721Z,97893.91
2022-09-20T00:08:46.891Z,97897.81
2022-09-20T00:11:16.877Z,97900.16
2022-09-20T00:13:45.294Z,97899.34
2022-09-20T00:16:15.027Z,97900.53
2022-09-20T00:18:41.918Z,97899.75
2022-09-20T00:21:15.838Z,97899.34
2022-09-20T00:23:42.337Z,97898.56
2022-09-20T00:26:08.803Z,97901.72
2022-09-20T00:28:35.218Z,97888.47
2022-09-20T00:31:01.683Z,97892.34
2022-09-20T00:33:46.807Z,97898.59
2022-09-20T00:36:13.415Z,97893.91
2022-09-20T00:38:39.832Z,97896.22
2022-09-20T00:41:06.285Z,97889.97
2022-09-20T00:43:46.442Z,97893.13
2022-09-20T00:46:41.482Z,97889.97
2022-09-20T00:49:21.653Z,97878.28
2022-09-20T00:51:56.774Z,97890.38
2022-09-20T00:54:25.403Z,97881.81
2022-09-20T00:56:52.413Z,97884.53
2022-09-20T00:59:25.395Z,97887.69
2022-09-20T01:02:03.084Z,97883.75
2022-09-20T01:04:30.397Z,97895.06
2022-09-20T01:07:02.194Z,97900.09
2022-09-20T01:09:29.039Z,97885.69
2022-09-20T01:11:57.578Z,97892.34
2022-09-20T01:14:26.471Z,97888.44
2022-09-20T01:17:02.142Z,97888.38
2022-09-20T01:19:39.986Z,97898.59
2022-09-20T01:22:25.115Z,97887.19
2022-09-20T01:25:09.394Z,97890.69
2022-09-20T01:27:40.391Z,97893.88
2022-09-20T01:30:13.761Z,97877.50
2022-09-20T01:32:52.442Z,97886.06
2022-09-20T01:35:21.379Z,97884.09
2022-09-20T01:38:18.406Z,97883.69
2022-09-20T01:41:15.084Z,97882.09
2022-09-20T01:43:53.118Z,97875.81
2022-09-20T01:46:32.914Z,97870.31
2022-09-20T01:49:30.651Z,97875.09
2022-09-20T01:52:06.150Z,97877.78
2022-09-20T01:54:58.068Z,97870.38
2022-09-20T01:58:07.190Z,97870.78
2022-09-20T02:00:57.865Z,97868.06
2022-09-20T02:03:49.022Z,97869.63
2022-09-20T02:06:24.346Z,97874.31
2022-09-20T02:09:14.458Z,97870.81
2022-09-20T02:12:14.157Z,97867.22
2022-09-20T02:14:53.539Z,97879.72
2022-09-20T02:17:57.007Z,97864.91
2022-09-20T02:20:44.051Z,97876.63
2022-09-20T02:23:35.529Z,97873.44
2022-09-20T02:26:32.242Z,97878.56
2022-09-20T02:29:06.784Z,97878.94
2022-09-20T02:32:10.733Z,97879.72
2022-09-20T02:35:05.484Z,97884.00
2022-09-20T02:37:50.166Z,97887.47
2022-09-20T02:40:25.679Z,97881.78
2022-09-20T02:43:07.575Z,97888.00
2022-09-20T02:45:58.897Z,97891.56
2022-09-20T02:48:38.449Z,97876.41
2022-09-20T02:51:30.913Z,97885.78
2022-09-20T02:54:08.209Z,97879.97
2022-09-20T02:56:45.762Z,97888.16
2022-09-20T02:59:33.407Z,97887.38
2022-09-20T03:02:28.188Z,97886.59
2022-09-20T03:05:14.405Z,97890.56
2022-09-20T03:08:25.280Z,97887.41
2022-09-20T03:11:18.591Z,97896.78
2022-09-20T03:14:00.746Z,97886.25
2022-09-20T03:16:58.735Z,97891.31
2022-09-20T03:19:36.554Z,97887.84
2022-09-20T03:22:24.023Z,97896.03
2022-09-20T03:25:14.895Z,97892.16
2022-09-20T03:28:03.779Z,97891.34
2022-09-20T03:31:31.254Z,97884.34
2022-09-20T03:34:22.213Z,97887.84
2022-09-20T03:37:18.955Z,97885.47
2022-09-20T03:40:07.569Z,97888.22
2022-09-20T03:42:39.251Z,97885.47
2022-09-20T03:45:14.666Z,97880.78
2022-09-20T03:48:18.109Z,97882.31
2022-09-20T03:51:20.394Z,97894.78
2022-09-20T03:54:03.733Z,97885.41
2022-09-20T03:56:38.942Z,97890.06
2022-09-20T03:59:31.814Z,97888.50
2022-09-20T04:02:21.864Z,97882.28
2022-09-20T04:04:54.590Z,97886.19
2022-09-20T04:07:33.357Z,97895.53
2022-09-20T04:10:18.707Z,97896.34
2022-09-20T04:13:22.761Z,97893.22
2022-09-20T04:16:04.353Z,97901.03
2022-09-20T04:18:49.707Z,97891.69
2022-09-20T04:21:34.482Z,97897.91
2022-09-20T04:24:04.567Z,97892.06
2022-09-20T04:26:41.545Z,97893.22
2022-09-20T04:29:34.087Z,97897.13
2022-09-20T04:32:10.076Z,97900.66
2022-09-20T04:35:04.400Z,97901.47
2022-09-20T04:37:33.598Z,97915.50
2022-09-20T04:40:21.080Z,97916.69
2022-09-20T04:43:17.452Z,97915.91
2022-09-20T04:46:03.062Z,97915.53
2022-09-20T04:48:57.681Z,97910.81
2022-09-20T04:51:36.826Z,97920.94
2022-09-20T04:54:15.503Z,97920.59
2022-09-20T04:56:44.782Z,97922.91
2022-09-20T04:59:21.910Z,97923.69
2022-09-20T05:01:59.902Z,97925.28
2022-09-20T05:04:29.596Z,97917.09
2022-09-20T05:07:15.232Z,97928.38
2022-09-20T05:10:08.374Z,97926.03
2022-09-20T05:12:54.602Z,97930.69
2022-09-20T05:15:24.156Z,97939.69
2022-09-20T05:18:15.370Z,97939.28
2022-09-20T05:20:59.367Z,97931.88
2022-09-20T05:23:50.914Z,97941.16
2022-09-20T05:26:29.235Z,97940.03
2022-09-20T05:29:26.790Z,97943.94
2022-09-20T05:32:06.589Z,97945.47
2022-09-20T05:34:44.619Z,97946.28
2022-09-20T05:37:34.874Z,97947.00
2022-09-20T05:40:46.277Z,97947.75
2022-09-20T05:43:27.783Z,97948.50
2022-09-20T05:46:03.307Z,97947.78
2022-09-20T05:48:41.950Z,97954.00
2022-09-20T05:51:31.647Z,97958.69
2022-09-20T05:54:02.942Z,97966.50
2022-09-20T05:57:02.895Z,97964.16
2022-09-20T05:59:38.950Z,97961.41
2022-09-20T06:02:17.794Z,97967.66
2022-09-20T06:04:52.722Z,97964.84
2022-09-20T06:07:29.077Z,97960.94
2022-09-20T06:10:07.666Z,97966.06
2022-09-20T06:12:54.738Z,97965.66
2022-09-20T06:15:33.334Z,97973.44
2022-09-20T06:18:21.973Z,97972.72
2022-09-20T06:21:25.517Z,97976.47
2022-09-20T06:23:58.538Z,97968.53
2022-09-20T06:26:28.548Z,97969.69
2022-09-20T06:29:00.592Z,97966.84
2022-09-20T06:31:27.625Z,97964.88
2022-09-20T06:34:00.502Z,97965.53
2022-09-20T06:37:09.401Z,97979.84
2022-09-20T06:40:29.650Z,97970.28
2022-09-20T06:42:57.962Z,97971.16
2022-09-20T06:45:24.418Z,97976.69
2022-09-20T06:47:50.812Z,97973.31
2022-09-20T06:50:18.115Z,97983.59
2022-09-20T06:52:46.581Z,97978.94
2022-09-20T06:55:23.319Z,97992.06
2022-09-20T06:57:52.664Z,97993.38
2022-09-20T07:00:19.653Z,97994.44
2022-09-20T07:02:46.705Z,97995.88
2022-09-20T07:05:17.898Z,97997.78
2022-09-20T07:07:44.627Z,97984.28
2022-09-20T07:10:12.089Z,97988.16
2022-09-20T07:12:38.573Z,97995.03
2022-09-20T07:15:06.248Z,97988.66
2022-09-20T07:17:33.582Z,97985.13
2022-09-20T07:20:00.552Z,97990.56
2022-09-20T07:22:27.789Z,97985.97
2022-09-20T07:24:54.169Z,97990.41
2022-09-20T07:27:21.286Z,97990.09
2022-09-20T07:29:47.754Z,97995.38
2022-09-20T07:32:15.388Z,97986.69
2022-09-20T07:34:41.829Z,97983.09
2022-09-20T07:37:08.274Z,97993.22
2022-09-20T07:39:34.670Z,97998.00
2022-09-20T07:42:06.047Z,97993.31
2022-09-20T07:44:32.468Z,97997.78
2022-09-20T07:46:59.615Z,97993.66
2022-09-20T07:49:28.669Z,98007.00
2022-09-20T07:51:55.194Z,98007.56
2022-09-20T07:54:21.645Z,98000.63
2022-09-20T07:56:48.488Z,98013.97
2022-09-20T07:59:15.274Z,98020.16
2022-09-20T08:01:42.706Z,98018.44
2022-09-20T08:04:10.351Z,98012.41
2022-09-20T08:06:41.257Z,98014.69
2022-09-20T08:09:11.083Z,98022.94
2022-09-20T08:11:39.620Z,98023.81
2022-09-20T08:14:08.111Z,98021.81
2022-09-20T08:16:45.613Z,98023.47
2022-09-20T08:19:18.341Z,98020.03
2022-09-20T08:21:45.188Z,98018.06
2022-09-20T08:24:11.683Z,98032.31
2022-09-20T08:26:38.166Z,98026.47
2022-09-20T08:29:08.528Z,98034.25
2022-09-20T08:31:38.394Z,98031.25
2022-09-20T08:34:06.972Z,98041.41
2022-09-20T08:36:36.675Z,98040.22
2022-09-20T08:42:12.433Z,98042.22
2022-09-20T08:45:00.060Z,98037.59
2022-09-20T08:47:31.191Z,98034.28
2022-09-20T08:49:58.863Z,98046.19
2022-09-20T08:52:37.442Z,98034.13
2022-09-20T08:55:18.211Z,98036.44
2022-09-20T08:57:49.235Z,98035.22
2022-09-20T09:00:21.357Z,98039.25
2022-09-20T09:02:51.614Z,98040.81
2022-09-20T09:05:31.742Z,98038.31
2022-09-20T09:08:00.730Z,98034.84
2022-09-20T09:10:34.552Z,98032.22
2022-09-20T09:13:01.199Z,98028.94
2022-09-20T09:15:32.714Z,98039.69
2022-09-20T09:17:59.370Z,98036.88
2022-09-20T09:20:26.292Z,98031.91
2022-09-20T09:23:05.128Z,98026.78
2022-09-20T09:25:41.187Z,98020.47
2022-09-20T09:28:07.540Z,98018.84
2022-09-20T09:30:45.011Z,98022.50
2022-09-20T09:33:15.746Z,98029.84
2022-09-20T09:35:43.408Z,98020.81
2022-09-20T09:38:24.124Z,98023.06
2022-09-20T09:40:59.761Z,98015.72
2022-09-20T09:43:32.164Z,98019.03
2022-09-20T09:46:19.077Z,98008.03
2022-09-20T09:48:49.990Z,98011.59
2022-09-20T09:51:18.854Z,98014.66
2022-09-20T09:53:47.430Z,98011.09
2022-09-20T09:56:30.114Z,97998.50
2022-09-20T09:59:33.664Z,97995.31
2022-09-20T10:02:19.172Z,97992.88
2022-09-20T10:05:03.152Z,97992.31
2022-09-20T10:07:49.729Z,98003.34
2022-09-20T10:10:32.396Z,98002.59
2022-09-20T10:13:38.267Z,97998.06
2022-09-20T10:16:25.220Z,97990.59
2022-09-20T10:18:55.428Z,97994.28
2022-09-20T10:21:56.965Z,97991.81
2022-09-20T10:24:57.292Z,97981.22
2022-09-20T10:27:38.885Z,97985.44
2022-09-20T10:30:17.005Z,97990.94
2022-09-20T10:33:03.653Z,97989.59
2022-09-20T10:35:42.358Z,97980.91
2022-09-20T10:38:21.688Z,97989.16
2022-09-20T10:41:44.643Z,97974.81
2022-09-20T10:44:20.107Z,97980.03
2022-09-20T10:46:53.006Z,97979.78
2022-09-20T10:49:36.864Z,97985.47
2022-09-20T10:52:17.325Z,97973.84
2022-09-20T10:55:06.320Z,97981.34
2022-09-20T10:58:04.408Z,97988.59
2022-09-20T11:01:02.494Z,97989.25
2022-09-20T11:03:47.286Z,97988.78
2022-09-20T11:06:22.026Z,97988.78
2022-09-20T11:08:55.731Z,97992.91
2022-09-20T11:11:32.849Z,97981.88
2022-09-20T11:14:09.806Z,97975.13
2022-09-20T11:16:57.835Z,97978.50
2022-09-20T11:19:48.446Z,97979.19
2022-09-20T11:22:32.519Z,97986.22
2022-09-20T11:25:18.031Z,97991.16
2022-09-20T11:27:53.185Z,97995.53
2022-09-20T11:30:24.138Z,97991.66
2022-09-20T11:33:00.548Z,98001.88
2022-09-20T11:35:34.790Z,97992.81
2022-09-20T11:38:17.425Z,97997.38
2022-09-20T11:40:52.215Z,97997.00
2022-09-20T11:43:19.826Z,97994.03
2022-09-20T11:45:49.875Z,97992.75
2022-09-20T11:48:29.666Z,97997.28
2022-09-20T11:51:16.599Z,98005.09
2022-09-20T11:53:47.837Z,98025.97
2022-09-20T11:56:24.914Z,98019.44
2022-09-20T11:58:57.795Z,98013.25
2022-09-20T12:01:50.412Z,98017.94
2022-09-20T12:04:34.760Z,98005.19
2022-09-20T12:07:26.923Z,98007.78
2022-09-20T12:10:02.932Z,98008.31
2022-09-20T12:12:51.105Z,98008.91
2022-09-20T12:15:31.459Z,98005.28
2022-09-20T12:17:57.797Z,98007.50
2022-09-20T12:20:53.301Z,98001.53
2022-09-20T12:23:41.207Z,97993.47
2022-09-20T12:26:10.721Z,97986.97
2022-09-20T12:28:40.074Z,97984.44
2022-09-20T12:31:18.963Z,97990.09
2022-09-20T12:34:04.606Z,97987.03
2022-09-20T12:36:36.107Z,97991.09
2022-09-20T12:39:06.604Z,97985.91
2022-09-20T12:41:53.941Z,97972.69
2022-09-20T12:44:35.497Z,97978.16
2022-09-20T12:47:08.350Z,97975.94
2022-09-20T12:49:59.470Z,97976.63
2022-09-20T12:52:49.345Z,97970.94
2022-09-20T12:55:30.751Z,97966.13
2022-09-20T12:58:15.291Z,97960.09
2022-09-20T13:00:47.077Z,97974.34
2022-09-20T13:03:37.894Z,97970.72
2022-09-20T13:06:07.321Z,97979.75
2022-09-20T13:08:47.961Z,97976.03
2022-09-20T13:11:18.689Z,97988.31
2022-09-20T13:13:50.206Z,97973.88
2022-09-20T13:16:24.521Z,97984.47
2022-09-20T13:19:05.664Z,97970.50
2022-09-20T13:21:34.855Z,97974.75
2022-09-20T13:24:02.319Z,97971.22
2022-09-20T13:26:33.958Z,97971.75
2022-09-20T13:29:02.305Z,97969.50
2022-09-20T13:31:31.821Z,97981.41
2022-09-20T13:34:25.841Z,97982.06
2022-09-20T13:36:58.377Z,97983.28
2022-09-20T13:39:36.202Z,97994.50
2022-09-20T13:42:09.086Z,97985.00
2022-09-20T13:44:37.258Z,97980.19
2022-09-20T13:47:22.315Z,97986.09
2022-09-20T13:49:49.231Z,97980.13
2022-09-20T13:52:34.360Z,97986.81
2022-09-20T13:55:19.162Z,97973.38
2022-09-20T13:57:48.043Z,97978.97
2022-09-20T14:00:15.690Z,97976.78
2022-09-20T14:02:42.229Z,97982.69
2022-09-20T14:05:17.063Z,97986.84
2022-09-20T14:07:46.082Z,97983.09
2022-09-20T14:10:37.054Z,97990.34
2022-09-20T14:13:07.326Z,97974.44
2022-09-20T14:15:37.621Z,97983.53
2022-09-20T14:18:07.040Z,97987.69
2022-09-20T14:20:34.423Z,97989.44
2022-09-20T14:23:01.466Z,97992.91
2022-09-20T14:25:28.399Z,97998.41
2022-09-20T14:28:18.676Z,97992.78
2022-09-20T14:30:47.469Z,97980.63
2022-09-20T14:33:20.754Z,97995.78
2022-09-20T14:35:50.257Z,97987.97
2022-09-20T14:38:21.535Z,97979.44
2022-09-20T14:40:49.088Z,97980.72
2022-09-20T14:43:24.086Z,97979.78
2022-09-20T14:45:59.146Z,97980.81
2022-09-20T14:48:25.515Z,97986.06
2022-09-20T14:51:11.008Z,97973.75
2022-09-20T14:53:38.301Z,97973.94
2022-09-20T14:56:04.899Z,97979.09
2022-09-20T14:58:32.270Z,97975.09
2022-09-20T15:01:15.495Z,97977.69
2022-09-20T15:03:42.154Z,97989.06
2022-09-20T15:06:13.549Z,97983.13
2022-09-20T15:08:45.470Z,97985.69
2022-09-20T15:11:14.801Z,97992.22
2022-09-20T15:13:41.322Z,97992.34
2022-09-20T15:16:08.334Z,97993.09
2022-09-20T15:18:41.865Z,97997.41
2022-09-20T15:21:10.757Z,97999.34
2022-09-20T15:23:38.247Z,97988.22
2022-09-20T15:26:05.836Z,97991.25
2022-09-20T15:28:34.099Z,97991.09
2022-09-20T15:31:00.584Z,97993.34
2022-09-20T15:33:30.158Z,97997.97
2022-09-20T15:35:56.571Z,97999.38
2022-09-20T15:38:26.738Z,97994.81
2022-09-20T15:40:53.303Z,97998.84
2022-09-20T15:43:24.002Z,97991.69
2022-09-20T15:45:55.354Z,97993.97
2022-09-20T15:48:24.450Z,97994.34
2022-09-20T15:51:02.429Z,97998.31
2022-09-20T15:53:36.826Z,98001.88
2022-09-20T15:56:12.994Z,98005.25
2022-09-20T15:58:39.389Z,98000.97
2022-09-20T16:01:08.131Z,98003.78
2022-09-20T16:03:36.116Z,98009.56
2022-09-20T16:06:05.812Z,98010.25
2022-09-20T16:08:33.532Z,98012.09
2022-09-20T16:11:00.447Z,98020.06
2022-09-20T16:13:27.671Z,98016.47
2022-09-20T16:15:59.440Z,98022.13
2022-09-20T16:18:45.414Z,98017.78
2022-09-20T16:21:14.186Z,98017.56
2022-09-20T16:23:41.925Z,98028.38
2022-09-20T16:26:12.852Z,98029.22
2022-09-20T16:28:47.283Z,98028.50
2022-09-20T16:31:40.786Z,98033.25
2022-09-20T16:34:13.411Z,98033.41
2022-09-20T16:36:44.369Z,98029.97
2022-09-20T16:39:12.528Z,98032.28
2022-09-20T16:41:39.557Z,98036.22
2022-09-20T16:44:06.318Z,98031.56
2022-09-20T16:46:37.098Z,98034.75
2022-09-20T16:49:06.998Z,98038.22
2022-09-20T16:51:35.913Z,98052.34
2022-09-20T16:54:11.606Z,98050.78
2022-09-20T16:56:39.906Z,98052.34
2022-09-20T16:59:07.535Z,98052.94
2022-09-20T17:01:36.690Z,98061.97
2022-09-20T17:04:07.265Z,98062.03
2022-09-20T17:06:36.327Z,98069.31
2022-09-20T17:09:03.966Z,98066.19
2022-09-20T17:11:32.840Z,98072.63
2022-09-20T17:14:00.137Z,98066.38
2022-09-20T17:16:32.242Z,98076.69
2022-09-20T17:19:01.157Z,98081.34
2022-09-20T17:21:29.339Z,98075.78
2022-09-20T17:23:58.440Z,98090.81
2022-09-20T17:26:26.071Z,98085.03
2022-09-20T17:28:56.268Z,98084.97
2022-09-20T17:31:25.347Z,98090.25
2022-09-20T17:33:52.155Z,98096.91
2022-09-20T17:36:21.445Z,98092.31
2022-09-20T17:38:54.289Z,98096.59
2022-09-20T17:41:21.777Z,98100.09
2022-09-20T17:43:52.477Z,98104.38
2022-09-20T17:46:22.779Z,98104.88
2022-09-20T17:48:52.261Z,98115.47
2022-09-20T17:51:19.916Z,98109.13
2022-09-20T17:53:46.698Z,98124.19
2022-09-20T17:56:14.014Z,98120.00
2022-09-20T17:58:41.675Z,98124.19
2022-09-20T18:01:12.896Z,98124.69
2022-09-20T18:03:42.563Z,98129.75
2022-09-20T18:06:22.368Z,98125.38
2022-09-20T18:08:54.006Z,98130.47
2022-09-20T18:11:24.953Z,98128.97
2022-09-20T18:13:51.602Z,98141.50
2022-09-20T18:16:18.420Z,98143.16
2022-09-20T18:18:46.501Z,98142.03
2022-09-20T18:21:21.625Z,98139.69
2022-09-20T18:23:49.066Z,98146.41
2022-09-20T18:26:26.917Z,98153.47
2022-09-20T18:29:05.551Z,98160.56
2022-09-20T18:31:43.184Z,98164.88
2022-09-20T18:34:18.127Z,98169.19
2022-09-20T18:36:48.417Z,98176.25
2022-09-20T18:39:14.878Z,98180.94
2022-09-20T18:41:42.758Z,98192.34
2022-09-20T18:44:12.435Z,98179.41
2022-09-20T18:46:40.592Z,98183.72
2022-09-20T18:49:09.660Z,98186.47
2022-09-20T18:51:39.760Z,98184.91
2022-09-20T18:54:09.915Z,98187.66
2022-09-20T18:56:39.285Z,98183.38
2022-09-20T18:59:08.357Z,98194.34
2022-09-20T19:01:44.937Z,98195.91
2022-09-20T19:04:29.914Z,98204.88
2022-09-20T19:07:21.116Z,98208.41
2022-09-20T19:10:05.840Z,98205.66
2022-09-20T19:12:54.469Z,98198.22
2022-09-20T19:15:37.553Z,98201.34
2022-09-20T19:18:44.662Z,98207.63
2022-09-20T19:21:43.207Z,98210.38
2022-09-20T19:24:18.277Z,98213.09
2022-09-20T19:26:45.662Z,98214.69
2022-09-20T19:29:21.767Z,98219.41
2022-09-20T19:31:50.849Z,98229.91
2022-09-20T19:34:23.117Z,98229.16
2022-09-20T19:37:18.646Z,98224.84
2022-09-20T19:40:36.488Z,98227.19
2022-09-20T19:43:05.672Z,98227.56
2022-09-20T19:45:56.764Z,98234.59
2022-09-20T19:48:28.953Z,98222.50
2022-09-20T19:50:57.362Z,98220.16
2022-09-20T19:53:28.150Z,98233.41
2022-09-20T19:56:03.494Z,98240.44
2022-09-20T19:58:30.221Z,98233.41
2022-09-20T20:00:58.357Z,98237.31
2022-09-20T20:03:27.417Z,98236.47
2022-09-20T20:06:07.854Z,98236.00
2022-09-20T20:08:43.202Z,98239.91
2022-09-20T20:11:21.086Z,98239.53
2022-09-20T20:14:08.994Z,98243.50
2022-09-20T20:16:54.280Z,98242.66
2022-09-20T20:19:42.126Z,98251.22
2022-09-20T20:22:14.162Z,98246.47
2022-09-20T20:25:00.902Z,98257.03
2022-09-20T20:27:28.446Z,98261.31
2022-09-20T20:29:55.788Z,98260.53
2022-09-20T20:32:22.513Z,98257.41
2022-09-20T20:34:49.071Z,98259.75
2022-09-20T20:37:16.116Z,98264.47
2022-09-20T20:39:42.590Z,98262.88
2022-09-20T20:42:11.937Z,98264.09
2022-09-20T20:44:38.351Z,98266.44
2022-09-20T20:47:06.370Z,98266.03
2022-09-20T20:49:33.337Z,98266.78
2022-09-20T20:52:04.299Z,98269.91
2022-09-20T20:54:31.790Z,98274.53
2022-09-20T20:56:59.152Z,98272.94
2022-09-20T20:59:25.702Z,98274.53
2022-09-20T21:01:52.156Z,98274.09
2022-09-20T21:04:18.678Z,98278.34
2022-09-20T21:06:45.113Z,98276.00
2022-09-20T21:09:11.973Z,98284.16
2022-09-20T21:11:44.152Z,98288.84
2022-09-20T21:14:12.675Z,98277.56
2022-09-20T21:16:45.069Z,98282.22
2022-09-20T21:19:15.006Z,98279.06
2022-09-20T21:21:43.206Z,98280.59
2022-09-20T21:24:12.224Z,98281.00
2022-09-20T21:26:40.067Z,98290.69
2022-09-20T21:29:11.117Z,98282.94
2022-09-20T21:31:39.992Z,98287.56
2022-09-20T21:34:08.753Z,98282.09
2022-09-20T21:36:36.276Z,98286.69
2022-09-20T21:39:03.325Z,98291.34
2022-09-20T21:41:32.153Z,98290.13
2022-09-20T21:44:00.395Z,98291.28
2022-09-20T21:46:32.576Z,98296.72
2022-09-20T21:49:01.586Z,98291.25
2022-09-20T21:51:31.158Z,98285.75
2022-09-20T21:54:01.421Z,98281.47
2022-09-20T21:56:33.663Z,98292.69
2022-09-20T21:59:02.146Z,98284.91
2022-09-20T22:01:30.319Z,98284.53
2022-09-20T22:04:01.122Z,98293.47
2022-09-20T22:06:33.718Z,98291.91
2022-09-20T22:09:05.851Z,98290.28
2022-09-20T22:11:36.023Z,98296.88
2022-09-20T22:14:02.422Z,98292.19
2022-09-20T22:16:33.352Z,98293.66
2022-09-20T22:19:00.520Z,98290.94
2022-09-20T22:21:34.355Z,98292.91
2022-09-20T22:24:03.039Z,98291.34
2022-09-20T22:26:32.469Z,98292.50
2022-09-20T22:28:59.181Z,98290.47
2022-09-20T22:31:28.554Z,98288.56
2022-09-20T22:33:57.909Z,98289.22
2022-09-20T22:36:26.771Z,98287.69
2022-09-20T22:38:53.709Z,98293.88
2022-09-20T22:41:21.035Z,98283.00
2022-09-20T22:43:47.713Z,98287.28
2022-09-20T22:46:20.392Z,98288.47
2022-09-20T22:48:47.366Z,98290.19
2022-09-20T22:51:16.711Z,98290.19
2022-09-20T22:53:43.785Z,98295.13
2022-09-20T22:56:13.469Z,98291.16
2022-09-20T22:58:42.221Z,98296.34
2022-09-20T23:01:10.616Z,98291.31
2022-09-20T23:03:42.497Z,98300.25
2022-09-20T23:06:17.732Z,98298.63
2022-09-20T23:08:44.217Z,98297.34
2022-09-20T23:11:10.909Z,98298.97
2022-09-20T23:13:37.414Z,98291.09
2022-09-20T23:16:15.581Z,98294.19
2022-09-20T23:18:42.167Z,98299.69
2022-09-20T23:21:08.668Z,98290.72
2022-09-20T23:23:36.504Z,98290.09
2022-09-20T23:26:07.392Z,98294.78
2022-09-20T23:28:35.620Z,98295.47
2022-09-20T23:31:08.010Z,98294.69
2022-09-20T23:33:35.162Z,98300.81
2022-09-20T23:36:03.483Z,98304.69
2022-09-20T23:38:29.923Z,98303.44
2022-09-20T23:41:01.405Z,98306.03
2022-09-20T23:43:27.819Z,98304.78
2022-09-20T23:45:54.314Z,98299.03
2022-09-20T23:48:20.742Z,98305.13
2022-09-20T23:50:47.161Z,98299.72
2022-09-20T23:53:13.546Z,98308.19
2022-09-20T23:55:39.987Z,98311.97
2022-09-20T23:58:06.378Z,98307.25
